sensor_id;sensor_type;location;lat;lon;timestamp;temperature;humidity
728;DHT22;347;48.780;9.158;2023-02-18T07:31:39;12.50;37.60
728;DHT22;347;48.780;9.158;2023-02-18T07:45:09;12.30;38.40
728;DHT22;347;48.780;9.158;2023-02-18T07:48:50;12.30;38.20
728;DHT22;347;48.780;9.158;2023-02-18T08:08:42;12.50;38.30
728;DHT22;347;48.780;9.158;2023-02-18T08:11:40;12.50;38.40
728;DHT22;347;48.780;9.158;2023-02-18T08:14:13;12.50;38.50
728;DHT22;347;48.780;9.158;2023-02-18T08:16:44;12.50;38.20
728;DHT22;347;48.780;9.158;2023-02-18T08:19:11;12.60;38.10
728;DHT22;347;48.780;9.158;2023-02-18T08:21:37;12.60;38.10
728;DHT22;347;48.780;9.158;2023-02-18T08:24:03;12.70;37.80
728;DHT22;347;48.780;9.158;2023-02-18T08:27:03;12.70;37.50
728;DHT22;347;48.780;9.158;2023-02-18T08:29:54;12.80;36.40
728;DHT22;347;48.780;9.158;2023-02-18T08:32:20;12.80;36.10
728;DHT22;347;48.780;9.158;2023-02-18T08:34:46;12.90;35.70
728;DHT22;347;48.780;9.158;2023-02-18T08:37:12;13.00;35.40
728;DHT22;347;48.780;9.158;2023-02-18T08:39:50;13.00;35.00
728;DHT22;347;48.780;9.158;2023-02-18T08:42:18;13.10;34.90
728;DHT22;347;48.780;9.158;2023-02-18T08:44:47;13.10;34.20
728;DHT22;347;48.780;9.158;2023-02-18T08:47:25;13.20;34.30
728;DHT22;347;48.780;9.158;2023-02-18T08:49:52;13.20;35.00
728;DHT22;347;48.780;9.158;2023-02-18T08:52:19;13.20;34.30
728;DHT22;347;48.780;9.158;2023-02-18T08:54:50;13.20;34.30
728;DHT22;347;48.780;9.158;2023-02-18T08:57:26;13.20;34.20
728;DHT22;347;48.780;9.158;2023-02-18T09:03:25;13.30;34.00
728;DHT22;347;48.780;9.158;2023-02-18T09:06:22;13.30;33.70
728;DHT22;347;48.780;9.158;2023-02-18T09:08:52;13.30;33.60
728;DHT22;347;48.780;9.158;2023-02-18T09:11:18;13.30;33.60
728;DHT22;347;48.780;9.158;2023-02-18T09:13:44;13.40;33.40
728;DHT22;347;48.780;9.158;2023-02-18T09:16:16;13.50;33.20
728;DHT22;347;48.780;9.158;2023-02-18T09:18:46;13.50;32.80
728;DHT22;347;48.780;9.158;2023-02-18T09:21:14;13.60;32.80
728;DHT22;347;48.780;9.158;2023-02-18T09:23:43;13.50;32.20
728;DHT22;347;48.780;9.158;2023-02-18T09:26:12;13.50;31.90
728;DHT22;347;48.780;9.158;2023-02-18T09:28:39;13.60;32.40
728;DHT22;347;48.780;9.158;2023-02-18T09:31:13;13.60;32.00
728;DHT22;347;48.780;9.158;2023-02-18T09:33:44;13.60;31.70
728;DHT22;347;48.780;9.158;2023-02-18T09:36:09;13.70;31.70
728;DHT22;347;48.780;9.158;2023-02-18T09:38:35;13.70;31.50
728;DHT22;347;48.780;9.158;2023-02-18T09:41:04;13.70;31.50
728;DHT22;347;48.780;9.158;2023-02-18T09:46:01;13.70;31.60
728;DHT22;347;48.780;9.158;2023-02-18T09:48:47;13.70;31.10
728;DHT22;347;48.780;9.158;2023-02-18T09:51:17;13.70;31.10
728;DHT22;347;48.780;9.158;2023-02-18T09:53:44;13.70;31.00
728;DHT22;347;48.780;9.158;2023-02-18T09:56:15;13.80;31.10
728;DHT22;347;48.780;9.158;2023-02-18T09:58:43;13.80;31.00
728;DHT22;347;48.780;9.158;2023-02-18T10:03:46;13.80;31.00
728;DHT22;347;48.780;9.158;2023-02-18T10:06:17;13.80;30.90
728;DHT22;347;48.780;9.158;2023-02-18T10:08:51;13.80;30.90
728;DHT22;347;48.780;9.158;2023-02-18T10:11:32;13.80;31.10
728;DHT22;347;48.780;9.158;2023-02-18T10:14:04;13.80;31.10
728;DHT22;347;48.780;9.158;2023-02-18T10:16:45;13.80;31.20
728;DHT22;347;48.780;9.158;2023-02-18T10:21:55;14.00;30.90
728;DHT22;347;48.780;9.158;2023-02-18T10:26:49;14.00;30.70
728;DHT22;347;48.780;9.158;2023-02-18T10:29:18;14.00;30.80
728;DHT22;347;48.780;9.158;2023-02-18T10:37:44;14.00;30.20
728;DHT22;347;48.780;9.158;2023-02-18T10:50:53;14.20;29.90
728;DHT22;347;48.780;9.158;2023-02-18T10:53:39;14.20;29.40
728;DHT22;347;48.780;9.158;2023-02-18T10:56:07;14.30;29.60
728;DHT22;347;48.780;9.158;2023-02-18T10:58:57;14.30;29.00
728;DHT22;347;48.780;9.158;2023-02-18T11:01:32;14.30;29.50
728;DHT22;347;48.780;9.158;2023-02-18T11:04:17;14.20;29.00
728;DHT22;347;48.780;9.158;2023-02-18T11:07:13;14.30;29.00
728;DHT22;347;48.780;9.158;2023-02-18T11:09:51;14.20;29.00
728;DHT22;347;48.780;9.158;2023-02-18T11:12:32;14.30;28.90
728;DHT22;347;48.780;9.158;2023-02-18T11:15:19;14.30;28.70
728;DHT22;347;48.780;9.158;2023-02-18T11:18:12;14.30;28.40
728;DHT22;347;48.780;9.158;2023-02-18T11:24:09;14.30;28.20
728;DHT22;347;48.780;9.158;2023-02-18T11:26:41;14.30;28.20
728;DHT22;347;48.780;9.158;2023-02-18T11:29:21;14.40;27.70
728;DHT22;347;48.780;9.158;2023-02-18T11:31:50;14.50;27.70
728;DHT22;347;48.780;9.158;2023-02-18T11:34:28;14.50;27.30
728;DHT22;347;48.780;9.158;2023-02-18T11:37:11;14.50;27.10
728;DHT22;347;48.780;9.158;2023-02-18T11:39:43;14.50;26.80
728;DHT22;347;48.780;9.158;2023-02-18T11:42:13;14.60;26.40
728;DHT22;347;48.780;9.158;2023-02-18T11:45:25;14.50;26.20
728;DHT22;347;48.780;9.158;2023-02-18T11:48:17;14.60;26.30
728;DHT22;347;48.780;9.158;2023-02-18T11:50:53;14.60;26.40
728;DHT22;347;48.780;9.158;2023-02-18T11:53:36;14.60;26.30
728;DHT22;347;48.780;9.158;2023-02-18T11:56:05;14.60;26.30
728;DHT22;347;48.780;9.158;2023-02-18T11:58:45;14.60;26.30
728;DHT22;347;48.780;9.158;2023-02-18T12:01:20;14.70;26.40
728;DHT22;347;48.780;9.158;2023-02-18T12:03:54;14.90;26.10
728;DHT22;347;48.780;9.158;2023-02-18T12:21:48;15.10;24.90
728;DHT22;347;48.780;9.158;2023-02-18T12:27:37;15.10;24.80
728;DHT22;347;48.780;9.158;2023-02-18T12:34:24;15.00;25.00
728;DHT22;347;48.780;9.158;2023-02-18T12:46:36;15.00;24.40
728;DHT22;347;48.780;9.158;2023-02-18T13:12:59;14.80;24.00
728;DHT22;347;48.780;9.158;2023-02-18T13:16:17;14.90;24.10
728;DHT22;347;48.780;9.158;2023-02-18T13:19:26;14.90;24.20
728;DHT22;347;48.780;9.158;2023-02-18T13:21:57;15.00;23.90
728;DHT22;347;48.780;9.158;2023-02-18T13:32:50;14.80;24.10
728;DHT22;347;48.780;9.158;2023-02-18T13:35:38;14.70;24.20
728;DHT22;347;48.780;9.158;2023-02-18T13:41:17;14.70;23.90
728;DHT22;347;48.780;9.158;2023-02-18T13:43:43;14.70;24.00
728;DHT22;347;48.780;9.158;2023-02-18T13:46:18;14.70;23.80
728;DHT22;347;48.780;9.158;2023-02-18T13:54:09;14.70;23.90
728;DHT22;347;48.780;9.158;2023-02-18T13:59:21;14.60;23.70
728;DHT22;347;48.780;9.158;2023-02-18T14:01:50;14.70;23.60
728;DHT22;347;48.780;9.158;2023-02-18T14:07:21;14.80;22.70
728;DHT22;347;48.780;9.158;2023-02-18T14:09:47;14.80;22.80
728;DHT22;347;48.780;9.158;2023-02-18T14:12:39;14.80;23.20
728;DHT22;347;48.780;9.158;2023-02-18T14:17:47;14.70;23.80
728;DHT22;347;48.780;9.158;2023-02-18T14:22:51;14.70;24.20
728;DHT22;347;48.780;9.158;2023-02-18T14:27:48;14.80;24.10
728;DHT22;347;48.780;9.158;2023-02-18T14:30:24;14.80;24.00
728;DHT22;347;48.780;9.158;2023-02-18T14:32:57;14.80;24.00
728;DHT22;347;48.780;9.158;2023-02-18T14:46:24;14.70;24.40
728;DHT22;347;48.780;9.158;2023-02-18T14:51:22;14.70;24.50
728;DHT22;347;48.780;9.158;2023-02-18T14:53:48;14.70;24.50
728;DHT22;347;48.780;9.158;2023-02-18T14:56:16;14.70;24.40
728;DHT22;347;48.780;9.158;2023-02-18T14:58:53;14.70;24.60
728;DHT22;347;48.780;9.158;2023-02-18T15:01:25;14.70;24.50
728;DHT22;347;48.780;9.158;2023-02-18T15:03:53;14.70;24.60
728;DHT22;347;48.780;9.158;2023-02-18T15:06:30;14.70;24.80
728;DHT22;347;48.780;9.158;2023-02-18T15:09:01;14.70;24.80
728;DHT22;347;48.780;9.158;2023-02-18T15:11:42;14.70;25.00
728;DHT22;347;48.780;9.158;2023-02-18T16:00:55;14.40;26.20
728;DHT22;347;48.780;9.158;2023-02-18T16:03:25;14.30;26.50
728;DHT22;347;48.780;9.158;2023-02-18T16:06:12;14.20;27.00
728;DHT22;347;48.780;9.158;2023-02-18T16:11:25;14.20;27.00
728;DHT22;347;48.780;9.158;2023-02-18T16:13:51;14.20;27.00
728;DHT22;347;48.780;9.158;2023-02-18T16:16:29;14.30;27.10
728;DHT22;347;48.780;9.158;2023-02-18T16:18:55;14.30;27.10
728;DHT22;347;48.780;9.158;2023-02-18T16:24:16;14.20;27.30
728;DHT22;347;48.780;9.158;2023-02-18T16:26:46;14.10;27.40
728;DHT22;347;48.780;9.158;2023-02-18T16:29:13;14.10;27.40
728;DHT22;347;48.780;9.158;2023-02-18T16:31:39;14.10;27.80
728;DHT22;347;48.780;9.158;2023-02-18T16:34:04;14.00;27.70
728;DHT22;347;48.780;9.158;2023-02-18T16:36:30;14.00;27.90
728;DHT22;347;48.780;9.158;2023-02-18T16:38:56;14.00;28.00
728;DHT22;347;48.780;9.158;2023-02-18T16:41:23;14.00;28.10
728;DHT22;347;48.780;9.158;2023-02-18T16:43:49;13.90;28.10
728;DHT22;347;48.780;9.158;2023-02-18T16:46:17;13.90;28.40
728;DHT22;347;48.780;9.158;2023-02-18T16:48:45;13.90;28.20
728;DHT22;347;48.780;9.158;2023-02-18T16:51:25;13.90;28.60
728;DHT22;347;48.780;9.158;2023-02-18T16:53:53;13.80;28.20
728;DHT22;347;48.780;9.158;2023-02-18T16:56:22;13.80;28.30
728;DHT22;347;48.780;9.158;2023-02-18T16:58:48;13.90;28.20
728;DHT22;347;48.780;9.158;2023-02-18T17:01:39;13.90;28.10
728;DHT22;347;48.780;9.158;2023-02-18T17:04:10;13.90;28.20
728;DHT22;347;48.780;9.158;2023-02-18T17:06:36;14.00;28.00
728;DHT22;347;48.780;9.158;2023-02-18T17:09:10;14.00;27.90
728;DHT22;347;48.780;9.158;2023-02-18T17:11:38;14.00;28.00
728;DHT22;347;48.780;9.158;2023-02-18T17:14:04;13.90;28.20
728;DHT22;347;48.780;9.158;2023-02-18T17:16:30;13.90;28.40
728;DHT22;347;48.780;9.158;2023-02-18T17:18:56;13.80;28.50
728;DHT22;347;48.780;9.158;2023-02-18T17:21:23;13.90;28.50
728;DHT22;347;48.780;9.158;2023-02-18T17:23:50;13.80;28.50
728;DHT22;347;48.780;9.158;2023-02-18T17:28:42;13.90;28.80
728;DHT22;347;48.780;9.158;2023-02-18T17:31:13;13.80;28.90
728;DHT22;347;48.780;9.158;2023-02-18T17:33:40;13.80;29.10
728;DHT22;347;48.780;9.158;2023-02-18T17:36:08;13.80;29.10
728;DHT22;347;48.780;9.158;2023-02-18T17:38:34;13.90;28.80
728;DHT22;347;48.780;9.158;2023-02-18T17:41:00;13.90;29.20
728;DHT22;347;48.780;9.158;2023-02-18T17:43:25;13.80;29.50
728;DHT22;347;48.780;9.158;2023-02-18T17:45:53;13.70;30.00
728;DHT22;347;48.780;9.158;2023-02-18T17:48:20;13.60;30.40
728;DHT22;347;48.780;9.158;2023-02-18T17:50:46;13.60;30.20
728;DHT22;347;48.780;9.158;2023-02-18T17:53:12;13.70;30.00
728;DHT22;347;48.780;9.158;2023-02-18T17:55:38;13.70;30.20
728;DHT22;347;48.780;9.158;2023-02-18T17:58:04;13.80;30.50
728;DHT22;347;48.780;9.158;2023-02-18T18:00:36;13.80;30.40
728;DHT22;347;48.780;9.158;2023-02-18T18:03:02;13.80;30.20
728;DHT22;347;48.780;9.158;2023-02-18T18:05:30;13.90;30.00
728;DHT22;347;48.780;9.158;2023-02-18T18:07:56;13.90;29.60
728;DHT22;347;48.780;9.158;2023-02-18T18:10:24;14.00;29.90
728;DHT22;347;48.780;9.158;2023-02-18T18:12:58;14.10;29.50
728;DHT22;347;48.780;9.158;2023-02-18T18:15:33;14.10;29.40
728;DHT22;347;48.780;9.158;2023-02-18T18:18:00;13.90;29.60
728;DHT22;347;48.780;9.158;2023-02-18T18:20:28;13.90;30.00
728;DHT22;347;48.780;9.158;2023-02-18T18:22:56;13.80;30.20
728;DHT22;347;48.780;9.158;2023-02-18T18:25:28;13.80;30.40
728;DHT22;347;48.780;9.158;2023-02-18T18:27:54;13.80;30.40
728;DHT22;347;48.780;9.158;2023-02-18T18:30:25;13.70;30.60
728;DHT22;347;48.780;9.158;2023-02-18T18:32:52;13.70;30.50
728;DHT22;347;48.780;9.158;2023-02-18T18:35:29;13.70;30.50
728;DHT22;347;48.780;9.158;2023-02-18T18:37:55;13.70;30.60
728;DHT22;347;48.780;9.158;2023-02-18T18:40:23;13.70;30.60
728;DHT22;347;48.780;9.158;2023-02-18T18:42:50;13.70;30.90
728;DHT22;347;48.780;9.158;2023-02-18T18:47:43;13.90;30.20
728;DHT22;347;48.780;9.158;2023-02-18T18:50:09;14.00;30.00
728;DHT22;347;48.780;9.158;2023-02-18T18:52:35;14.00;29.90
728;DHT22;347;48.780;9.158;2023-02-18T18:55:00;14.00;30.00
728;DHT22;347;48.780;9.158;2023-02-18T18:57:26;13.90;30.30
728;DHT22;347;48.780;9.158;2023-02-18T18:59:52;13.70;31.90
728;DHT22;347;48.780;9.158;2023-02-18T19:02:17;13.60;31.40
728;DHT22;347;48.780;9.158;2023-02-18T19:04:44;13.60;31.40
728;DHT22;347;48.780;9.158;2023-02-18T19:07:09;13.70;31.40
728;DHT22;347;48.780;9.158;2023-02-18T19:09:35;13.70;31.20
728;DHT22;347;48.780;9.158;2023-02-18T19:12:01;13.70;31.30
728;DHT22;347;48.780;9.158;2023-02-18T19:14:26;13.60;31.30
728;DHT22;347;48.780;9.158;2023-02-18T19:16:52;13.70;31.30
728;DHT22;347;48.780;9.158;2023-02-18T19:19:20;13.70;31.10
728;DHT22;347;48.780;9.158;2023-02-18T19:21:49;13.70;31.30
728;DHT22;347;48.780;9.158;2023-02-18T19:24:14;13.70;30.90
728;DHT22;347;48.780;9.158;2023-02-18T19:26:40;13.60;31.50
728;DHT22;347;48.780;9.158;2023-02-18T19:29:05;13.60;31.60
728;DHT22;347;48.780;9.158;2023-02-18T19:31:31;13.60;31.90
728;DHT22;347;48.780;9.158;2023-02-18T19:33:56;13.60;31.50
728;DHT22;347;48.780;9.158;2023-02-18T19:36:22;13.60;31.70
728;DHT22;347;48.780;9.158;2023-02-18T19:38:48;13.50;32.10
728;DHT22;347;48.780;9.158;2023-02-18T19:41:16;13.50;32.50
728;DHT22;347;48.780;9.158;2023-02-18T19:43:42;13.50;32.40
728;DHT22;347;48.780;9.158;2023-02-18T19:46:14;13.40;33.10
728;DHT22;347;48.780;9.158;2023-02-18T19:48:41;13.30;33.70
728;DHT22;347;48.780;9.158;2023-02-18T19:51:07;13.30;34.40
728;DHT22;347;48.780;9.158;2023-02-18T19:53:33;13.30;34.10
728;DHT22;347;48.780;9.158;2023-02-18T19:56:01;13.30;33.90
728;DHT22;347;48.780;9.158;2023-02-18T19:58:27;13.30;34.40
728;DHT22;347;48.780;9.158;2023-02-18T20:00:53;13.40;34.10
728;DHT22;347;48.780;9.158;2023-02-18T20:03:19;13.40;33.80
728;DHT22;347;48.780;9.158;2023-02-18T20:05:45;13.50;33.70
728;DHT22;347;48.780;9.158;2023-02-18T20:08:10;13.30;35.40
728;DHT22;347;48.780;9.158;2023-02-18T20:10:36;13.20;36.20
728;DHT22;347;48.780;9.158;2023-02-18T20:13:02;13.00;37.60
728;DHT22;347;48.780;9.158;2023-02-18T20:15:30;12.80;38.50
728;DHT22;347;48.780;9.158;2023-02-18T20:17:55;12.70;38.70
728;DHT22;347;48.780;9.158;2023-02-18T20:20:21;12.70;38.90
728;DHT22;347;48.780;9.158;2023-02-18T20:22:47;12.60;40.20
728;DHT22;347;48.780;9.158;2023-02-18T20:25:12;12.40;41.60
728;DHT22;347;48.780;9.158;2023-02-18T20:27:38;12.50;41.80
728;DHT22;347;48.780;9.158;2023-02-18T20:30:05;12.50;42.90
728;DHT22;347;48.780;9.158;2023-02-18T20:32:33;12.30;43.70
728;DHT22;347;48.780;9.158;2023-02-18T20:34:59;12.30;44.10
728;DHT22;347;48.780;9.158;2023-02-18T20:37:25;12.30;44.30
728;DHT22;347;48.780;9.158;2023-02-18T20:39:51;12.30;44.50
728;DHT22;347;48.780;9.158;2023-02-18T20:42:16;12.40;43.70
728;DHT22;347;48.780;9.158;2023-02-18T20:44:43;12.40;43.70
728;DHT22;347;48.780;9.158;2023-02-18T20:47:08;12.40;43.70
728;DHT22;347;48.780;9.158;2023-02-18T20:49:34;12.40;43.70
728;DHT22;347;48.780;9.158;2023-02-18T20:52:00;12.50;42.10
728;DHT22;347;48.780;9.158;2023-02-18T20:54:26;12.50;41.90
728;DHT22;347;48.780;9.158;2023-02-18T20:56:53;12.50;41.60
728;DHT22;347;48.780;9.158;2023-02-18T20:59:20;12.40;41.30
728;DHT22;347;48.780;9.158;2023-02-18T21:01:46;12.40;41.00
728;DHT22;347;48.780;9.158;2023-02-18T21:04:14;12.30;40.90
728;DHT22;347;48.780;9.158;2023-02-18T21:06:41;12.40;40.70
728;DHT22;347;48.780;9.158;2023-02-18T21:09:09;12.20;40.50
728;DHT22;347;48.780;9.158;2023-02-18T21:11:35;12.20;40.80
728;DHT22;347;48.780;9.158;2023-02-18T21:14:01;12.30;40.50
728;DHT22;347;48.780;9.158;2023-02-18T21:16:28;12.30;40.30
728;DHT22;347;48.780;9.158;2023-02-18T21:18:56;12.30;40.30
728;DHT22;347;48.780;9.158;2023-02-18T21:21:22;12.40;40.30
728;DHT22;347;48.780;9.158;2023-02-18T21:23:49;12.50;39.70
728;DHT22;347;48.780;9.158;2023-02-18T21:26:17;12.60;39.10
728;DHT22;347;48.780;9.158;2023-02-18T21:28:48;12.50;39.30
728;DHT22;347;48.780;9.158;2023-02-18T21:31:29;12.40;40.20
728;DHT22;347;48.780;9.158;2023-02-18T21:33:55;12.30;40.70
728;DHT22;347;48.780;9.158;2023-02-18T21:36:21;12.20;40.80
728;DHT22;347;48.780;9.158;2023-02-18T21:38:53;12.30;40.90
728;DHT22;347;48.780;9.158;2023-02-18T21:41:20;12.40;40.10
728;DHT22;347;48.780;9.158;2023-02-18T21:43:46;12.40;40.40
728;DHT22;347;48.780;9.158;2023-02-18T21:46:17;12.40;40.00
728;DHT22;347;48.780;9.158;2023-02-18T21:48:43;12.50;40.00
728;DHT22;347;48.780;9.158;2023-02-18T21:51:32;12.40;40.70
728;DHT22;347;48.780;9.158;2023-02-18T21:54:38;12.30;41.10
728;DHT22;347;48.780;9.158;2023-02-18T21:57:06;12.20;42.20
728;DHT22;347;48.780;9.158;2023-02-18T21:59:34;12.20;43.00
728;DHT22;347;48.780;9.158;2023-02-18T22:02:01;12.30;41.80
728;DHT22;347;48.780;9.158;2023-02-18T22:04:29;12.50;41.20
728;DHT22;347;48.780;9.158;2023-02-18T22:06:55;12.60;40.50
728;DHT22;347;48.780;9.158;2023-02-18T22:09:22;12.60;40.50
728;DHT22;347;48.780;9.158;2023-02-18T22:11:47;12.50;41.20
728;DHT22;347;48.780;9.158;2023-02-18T22:14:14;12.70;41.10
728;DHT22;347;48.780;9.158;2023-02-18T22:16:40;12.70;40.60
728;DHT22;347;48.780;9.158;2023-02-18T22:19:06;12.80;40.20
728;DHT22;347;48.780;9.158;2023-02-18T22:21:32;12.70;41.30
728;DHT22;347;48.780;9.158;2023-02-18T22:23:58;12.80;41.70
728;DHT22;347;48.780;9.158;2023-02-18T22:26:23;12.80;40.80
728;DHT22;347;48.780;9.158;2023-02-18T22:28:51;12.90;40.70
728;DHT22;347;48.780;9.158;2023-02-18T22:31:17;12.90;40.50
728;DHT22;347;48.780;9.158;2023-02-18T22:33:42;13.00;40.50
728;DHT22;347;48.780;9.158;2023-02-18T22:36:09;13.00;40.70
728;DHT22;347;48.780;9.158;2023-02-18T22:38:36;13.00;41.10
728;DHT22;347;48.780;9.158;2023-02-18T22:41:04;13.00;41.50
728;DHT22;347;48.780;9.158;2023-02-18T22:43:30;13.00;41.90
728;DHT22;347;48.780;9.158;2023-02-18T22:45:55;13.00;42.00
728;DHT22;347;48.780;9.158;2023-02-18T22:48:21;13.00;42.20
728;DHT22;347;48.780;9.158;2023-02-18T22:50:46;13.00;42.30
728;DHT22;347;48.780;9.158;2023-02-18T22:53:12;13.00;42.30
728;DHT22;347;48.780;9.158;2023-02-18T22:55:37;13.00;42.50
728;DHT22;347;48.780;9.158;2023-02-18T22:58:03;13.00;42.70
728;DHT22;347;48.780;9.158;2023-02-18T23:00:29;12.90;42.70
728;DHT22;347;48.780;9.158;2023-02-18T23:02:54;12.90;43.10
728;DHT22;347;48.780;9.158;2023-02-18T23:05:20;12.90;43.00
728;DHT22;347;48.780;9.158;2023-02-18T23:07:45;12.90;42.90
728;DHT22;347;48.780;9.158;2023-02-18T23:10:11;12.90;43.00
728;DHT22;347;48.780;9.158;2023-02-18T23:12:37;12.80;43.20
728;DHT22;347;48.780;9.158;2023-02-18T23:15:02;12.90;43.00
728;DHT22;347;48.780;9.158;2023-02-18T23:17:28;12.80;43.30
728;DHT22;347;48.780;9.158;2023-02-18T23:19:54;12.80;43.40
728;DHT22;347;48.780;9.158;2023-02-18T23:22:25;12.80;43.70
728;DHT22;347;48.780;9.158;2023-02-18T23:24:55;12.70;44.00
728;DHT22;347;48.780;9.158;2023-02-18T23:27:20;12.70;43.90
728;DHT22;347;48.780;9.158;2023-02-18T23:29:46;12.70;44.00
728;DHT22;347;48.780;9.158;2023-02-18T23:32:13;12.70;44.00
728;DHT22;347;48.780;9.158;2023-02-18T23:34:39;12.80;43.70
728;DHT22;347;48.780;9.158;2023-02-18T23:37:04;12.70;43.50
728;DHT22;347;48.780;9.158;2023-02-18T23:39:30;12.70;43.20
728;DHT22;347;48.780;9.158;2023-02-18T23:41:56;12.60;42.90
728;DHT22;347;48.780;9.158;2023-02-18T23:44:23;12.30;43.60
728;DHT22;347;48.780;9.158;2023-02-18T23:46:49;12.30;44.70
728;DHT22;347;48.780;9.158;2023-02-18T23:49:23;12.30;44.20
728;DHT22;347;48.780;9.158;2023-02-18T23:51:51;12.30;43.60
728;DHT22;347;48.780;9.158;2023-02-18T23:54:17;12.20;43.80
728;DHT22;347;48.780;9.158;2023-02-18T23:56:44;12.10;44.00
728;DHT22;347;48.780;9.158;2023-02-18T23:59:10;12.30;43.60
